Time;durP1;ratioP1;P1;durP2;ratioP2;P2;SDS_P1;SDS_P2;PMS_P1;PMS_P2;Temp;Humidity;BMP_temperature;BMP_pressure;BME280_temperature;BME280_humidity;BME280_pressure;Samples;Min_cycle;Max_cycle;Signal;HPM_P1;HPM_P2
2021/09/16 00:02:25;;;;;;;;;6.50;5.50;;;;;24.62;49.27;101276.38;5035256;28;50948;-58
2021/09/16 00:04:50;;;;;;;;;6.00;6.00;;;;;24.63;48.84;101285.53;5036930;28;51000;-58
2021/09/16 00:07:15;;;;;;;;;6.25;6.25;;;;;24.62;49.16;101283.84;5036013;28;51104;-58
2021/09/16 00:09:41;;;;;;;;;6.25;6.00;;;;;24.61;48.95;101279.38;5035031;28;51067;-60
2021/09/16 00:12:06;;;;;;;;;8.25;6.00;;;;;24.61;49.20;101282.16;5035281;28;51056;-58
2021/09/16 00:14:31;;;;;;;;;6.50;5.75;;;;;24.60;49.54;101283.25;5028660;28;51263;-58
2021/09/16 00:16:57;;;;;;;;;6.50;6.00;;;;;24.59;49.00;101273.22;5017756;28;51415;-58
2021/09/16 00:19:22;;;;;;;;;9.00;6.75;;;;;24.59;49.15;101285.13;5027404;28;51458;-58
2021/09/16 00:21:48;;;;;;;;;8.00;7.75;;;;;24.59;49.27;101285.13;5018284;28;51167;-56
2021/09/16 00:24:13;;;;;;;;;8.25;8.00;;;;;24.58;49.06;101280.69;5017426;28;51089;-58
2021/09/16 00:26:38;;;;;;;;;9.25;6.75;;;;;24.57;48.96;101279.00;5025051;28;51404;-58
2021/09/16 00:29:04;;;;;;;;;7.00;7.00;;;;;24.57;48.98;101276.22;5023962;28;51802;-58
2021/09/16 00:31:29;;;;;;;;;6.25;5.75;;;;;24.57;48.91;101278.16;5035650;28;51077;-58
2021/09/16 00:33:55;;;;;;;;;7.25;7.00;;;;;24.55;49.24;101278.41;5022825;28;51132;-56
2021/09/16 00:36:20;;;;;;;;;9.50;6.75;;;;;24.55;49.20;101275.63;5017529;28;51157;-57
2021/09/16 00:38:45;;;;;;;;;8.25;6.25;;;;;24.56;49.09;101282.00;5030598;28;51017;-58
2021/09/16 00:41:11;;;;;;;;;8.00;6.75;;;;;24.55;49.07;101283.09;5027328;28;51006;-58
2021/09/16 00:43:36;;;;;;;;;6.00;5.75;;;;;24.54;49.09;101275.88;5026051;28;51196;-58
2021/09/16 00:46:06;;;;;;;;;9.25;7.25;;;;;24.53;49.11;101280.56;5017456;28;51066;-58
2021/09/16 00:48:31;;;;;;;;;6.00;3.25;;;;;24.53;49.03;101286.09;5023951;28;52905;-58
2021/09/16 00:50:57;;;;;;;;;6.75;6.75;;;;;24.52;49.22;101289.97;5017111;28;51217;-58
2021/09/16 00:53:25;;;;;;;;;6.50;5.00;;;;;24.52;49.23;101297.44;5021560;28;51207;-58
2021/09/16 00:55:53;;;;;;;;;6.50;6.00;;;;;24.50;48.88;101297.69;5036312;28;51096;-59
2021/09/16 00:58:20;;;;;;;;;7.25;6.00;;;;;24.50;48.88;101302.38;5025551;28;51094;-58
2021/09/16 01:00:46;;;;;;;;;5.75;5.75;;;;;24.50;49.14;101302.38;5019736;28;51360;-58
2021/09/16 01:03:12;;;;;;;;;7.00;6.00;;;;;24.48;48.94;101297.03;5016688;28;51128;-58
2021/09/16 01:05:37;;;;;;;;;6.50;6.50;;;;;24.48;49.14;101299.81;5016990;28;51092;-58
2021/09/16 01:08:04;;;;;;;;;6.75;5.75;;;;;24.47;49.22;101301.75;5017396;28;51989;-58
2021/09/16 01:10:30;;;;;;;;;7.00;4.00;;;;;24.46;49.07;101297.28;5016845;28;51476;-58
2021/09/16 01:12:55;;;;;;;;;6.75;6.25;;;;;24.46;49.39;101301.97;5017831;28;51121;-58
2021/09/16 01:15:22;;;;;;;;;7.00;7.00;;;;;24.45;49.16;101294.75;5020720;28;51254;-58
2021/09/16 01:17:47;;;;;;;;;4.75;4.75;;;;;24.44;49.16;101304.16;5023253;28;51991;-58
2021/09/16 01:20:13;;;;;;;;;7.50;6.50;;;;;24.44;48.85;101304.16;5028135;28;51108;-58
2021/09/16 01:22:38;;;;;;;;;6.00;6.00;;;;;24.44;49.18;101309.69;5020465;28;51201;-60
2021/09/16 01:25:05;;;;;;;;;5.50;5.00;;;;;24.42;48.88;101304.41;5016792;28;51172;-58
2021/09/16 01:27:31;;;;;;;;;7.00;5.25;;;;;24.42;49.25;101300.78;5032381;28;51919;-58
2021/09/16 01:29:56;;;;;;;;;6.25;5.00;;;;;24.41;49.09;101299.94;5020965;28;51264;-58
2021/09/16 01:32:22;;;;;;;;;5.75;5.75;;;;;24.41;49.09;101321.25;5016577;28;51341;-58
2021/09/16 01:34:47;;;;;;;;;6.25;6.25;;;;;24.40;49.21;101320.41;5020724;28;51052;-58
2021/09/16 01:37:12;;;;;;;;;7.25;7.25;;;;;24.41;49.02;101324.03;5017395;28;51694;-59
2021/09/16 01:39:38;;;;;;;;;5.25;5.25;;;;;24.40;49.05;101316.78;5018969;28;51214;-58
2021/09/16 01:42:04;;;;;;;;;6.00;6.00;;;;;24.37;48.98;101312.56;5031022;28;51229;-58
2021/09/16 01:44:31;;;;;;;;;7.00;7.00;;;;;24.37;49.25;101317.25;5016496;28;51167;-58
2021/09/16 01:46:56;;;;;;;;;7.00;7.00;;;;;24.36;49.35;101312.81;5019710;28;52089;-58
2021/09/16 01:49:21;;;;;;;;;8.00;5.50;;;;;24.36;49.00;101323.88;5034803;28;51101;-58
2021/09/16 01:51:47;;;;;;;;;6.75;6.00;;;;;24.36;48.89;101323.88;5034487;28;51347;-58
2021/09/16 01:54:12;;;;;;;;;9.00;8.00;;;;;24.34;48.86;101326.03;5028892;28;51271;-58
2021/09/16 01:56:37;;;;;;;;;5.50;5.50;;;;;24.34;49.26;101334.34;5035041;28;51087;-58
2021/09/16 01:59:03;;;;;;;;;6.75;6.75;;;;;24.33;49.16;101332.66;5029779;28;51013;-57
2021/09/16 02:01:28;;;;;;;;;5.25;5.25;;;;;24.32;49.14;101328.22;5017074;28;51160;-57
2021/09/16 02:03:53;;;;;;;;;7.00;5.50;;;;;24.32;49.09;101333.75;5016861;28;51068;-58
2021/09/16 02:06:20;;;;;;;;;5.75;5.75;;;;;24.31;49.10;101338.44;5033381;28;51746;-57
2021/09/16 02:08:46;;;;;;;;;7.75;7.25;;;;;24.31;49.10;101332.06;5035233;28;51176;-57
2021/09/16 02:11:11;;;;;;;;;3.50;3.50;;;;;24.29;49.03;101340.56;5033986;28;51089;-57
2021/09/16 02:13:36;;;;;;;;;5.50;5.00;;;;;24.31;49.15;101340.38;5034074;28;51256;-57
2021/09/16 02:16:02;;;;;;;;;6.00;6.00;;;;;24.30;49.05;101338.66;5023015;28;51273;-56
2021/09/16 02:18:28;;;;;;;;;7.00;6.25;;;;;24.29;48.81;101339.72;5018822;28;51195;-58
2021/09/16 02:20:53;;;;;;;;;5.00;5.00;;;;;24.29;49.28;101332.28;5015571;28;51184;-58
2021/09/16 02:23:19;;;;;;;;;5.75;4.75;;;;;24.28;48.96;101338.00;5017238;28;51317;-57
2021/09/16 02:25:44;;;;;;;;;5.50;4.75;;;;;24.27;48.83;101333.56;5015570;28;51045;-59
2021/09/16 02:28:09;;;;;;;;;8.25;6.75;;;;;24.27;48.98;101339.09;5018150;28;50939;-58
2021/09/16 02:30:35;;;;;;;;;6.75;6.75;;;;;24.27;49.14;101344.63;5015388;28;51049;-58
2021/09/16 02:33:04;;;;;;;;;5.75;5.75;;;;;24.26;49.17;101345.72;5016767;28;51368;-57
2021/09/16 02:35:30;;;;;;;;;6.00;5.00;;;;;24.26;49.31;101346.56;5015349;28;50989;-58
2021/09/16 02:37:55;;;;;;;;;4.00;4.00;;;;;24.26;49.23;101345.72;5031675;28;51179;-57
2021/09/16 02:40:20;;;;;;;;;4.00;4.00;;;;;24.24;49.11;101348.72;5032166;28;51303;-58
2021/09/16 02:42:46;;;;;;;;;6.75;4.50;;;;;24.25;49.11;101344.03;5028941;28;51187;-57
2021/09/16 02:45:11;;;;;;;;;5.75;4.50;;;;;24.24;49.31;101339.56;5021241;28;51299;-57
2021/09/16 02:47:36;;;;;;;;;4.50;4.25;;;;;24.24;49.10;101336.81;5015108;28;51104;-57
2021/09/16 02:50:02;;;;;;;;;5.00;5.00;;;;;24.24;49.18;101334.03;5014701;28;51475;-56
2021/09/16 02:52:27;;;;;;;;;6.25;5.25;;;;;24.22;49.05;101345.34;5031721;28;51215;-56
2021/09/16 02:54:53;;;;;;;;;5.50;4.50;;;;;24.22;49.18;101339.81;5034251;28;51203;-57
2021/09/16 02:57:18;;;;;;;;;3.75;3.75;;;;;24.21;49.31;101346.44;5021665;28;51226;-56
2021/09/16 02:59:43;;;;;;;;;6.50;5.75;;;;;24.21;49.08;101345.59;5025626;28;51042;-55
2021/09/16 03:02:09;;;;;;;;;7.00;6.00;;;;;24.21;49.19;101351.13;5031300;28;51115;-57
2021/09/16 03:04:34;;;;;;;;;7.50;5.00;;;;;24.20;49.14;101347.53;5033970;28;51958;-57
2021/09/16 03:07:00;;;;;;;;;6.50;5.50;;;;;24.21;49.25;101360.28;5034650;28;52433;-56
2021/09/16 03:09:26;;;;;;;;;6.00;5.25;;;;;24.19;49.02;101363.28;5034101;28;50979;-57
2021/09/16 03:11:52;;;;;;;;;6.25;5.25;;;;;24.19;48.95;101357.75;5032792;28;51190;-57
2021/09/16 03:14:17;;;;;;;;;5.00;5.00;;;;;24.19;49.02;101366.06;5029088;28;52227;-57
2021/09/16 03:16:42;;;;;;;;;4.50;4.50;;;;;24.19;48.98;101359.69;5023170;28;51209;-56
2021/09/16 03:19:08;;;;;;;;;6.00;6.00;;;;;24.18;49.08;101361.59;5033428;28;51048;-56
2021/09/16 03:21:33;;;;;;;;;5.75;4.25;;;;;24.18;49.18;101356.06;5033245;28;51064;-57
2021/09/16 03:23:58;;;;;;;;;5.00;4.25;;;;;24.18;48.66;101369.06;5027560;28;51839;-57
2021/09/16 03:26:24;;;;;;;;;6.00;6.00;;;;;24.17;48.94;101368.19;5034378;28;51343;-57
2021/09/16 03:28:49;;;;;;;;;5.00;5.00;;;;;24.17;48.88;101362.66;5014432;28;51071;-57
2021/09/16 03:31:15;;;;;;;;;4.50;4.50;;;;;24.17;48.78;101362.66;5019743;28;51017;-58
2021/09/16 03:33:40;;;;;;;;;8.00;5.00;;;;;24.17;49.01;101365.41;5033048;28;51029;-58
2021/09/16 03:36:06;;;;;;;;;7.00;6.00;;;;;24.17;49.26;101370.94;5032322;28;51142;-58
2021/09/16 03:38:31;;;;;;;;;5.50;5.50;;;;;24.16;49.28;101369.28;5024673;28;51208;-57
2021/09/16 03:40:57;;;;;;;;;5.25;4.25;;;;;24.16;48.75;101368.44;5021388;28;51061;-57
2021/09/16 03:43:23;;;;;;;;;4.25;4.25;;;;;24.16;49.30;101363.72;5018405;28;51157;-56
2021/09/16 03:45:48;;;;;;;;;5.00;5.00;;;;;24.15;49.03;101362.03;5018863;28;51182;-57
2021/09/16 03:48:13;;;;;;;;;5.00;4.50;;;;;24.15;49.07;101359.28;5018681;28;51390;-57
2021/09/16 03:50:39;;;;;;;;;3.50;3.00;;;;;24.14;49.16;101365.91;5019419;28;51199;-58
2021/09/16 03:53:04;;;;;;;;;4.00;4.00;;;;;24.14;48.61;101365.91;5032633;28;50978;-57
2021/09/16 03:55:30;;;;;;;;;6.50;6.25;;;;;24.14;49.13;101370.59;5032656;28;51118;-57
2021/09/16 03:57:56;;;;;;;;;4.25;4.25;;;;;24.11;49.44;101368.31;5024678;28;52388;-56
2021/09/16 04:00:21;;;;;;;;;5.00;3.00;;;;;24.12;49.12;101370.81;5036036;28;50951;-57
2021/09/16 04:02:47;;;;;;;;;6.00;3.00;;;;;24.11;49.01;101373.84;5026097;28;51869;-57
2021/09/16 04:05:12;;;;;;;;;6.00;4.50;;;;;24.11;48.99;101379.38;5033092;28;51021;-57
2021/09/16 04:07:37;;;;;;;;;4.75;3.25;;;;;24.10;48.98;101378.53;5036248;28;50977;-58
2021/09/16 04:10:05;;;;;;;;;4.50;3.25;;;;;24.09;48.86;101374.06;5017729;28;51029;-57
2021/09/16 04:12:31;;;;;;;;;9.00;6.00;;;;;24.09;49.16;101385.16;5017668;28;52009;-57
2021/09/16 04:14:56;;;;;;;;;4.00;4.00;;;;;24.05;49.04;101381.13;5023770;28;51476;-57
2021/09/16 04:17:21;;;;;;;;;4.25;4.00;;;;;24.08;48.78;101386.22;5018845;28;50994;-57
2021/09/16 04:19:47;;;;;;;;;4.25;4.25;;;;;24.06;49.26;101388.34;5034249;28;51291;-58
2021/09/16 04:22:12;;;;;;;;;3.25;3.00;;;;;24.06;48.77;101385.59;5037002;28;51062;-57
2021/09/16 04:24:37;;;;;;;;;3.75;3.00;;;;;24.05;48.95;101383.91;5027921;28;51311;-57
2021/09/16 04:27:03;;;;;;;;;3.00;3.00;;;;;24.04;48.81;101386.91;5030693;28;51087;-57
2021/09/16 04:29:28;;;;;;;;;7.25;5.00;;;;;24.03;48.83;101388.84;5029920;28;51358;-58
2021/09/16 04:31:55;;;;;;;;;3.00;3.00;;;;;24.05;48.49;101388.59;5036892;28;51757;-59
2021/09/16 04:34:21;;;;;;;;;5.25;3.50;;;;;24.04;48.76;101392.44;5022464;28;51128;-59
2021/09/16 04:36:47;;;;;;;;;5.00;5.00;;;;;24.03;48.61;101388.00;5018180;28;51098;-57
2021/09/16 04:39:12;;;;;;;;;6.50;5.25;;;;;24.03;48.51;101388.00;5029236;28;51375;-57
2021/09/16 04:41:37;;;;;;;;;4.50;4.25;;;;;24.02;48.41;101383.53;5029997;28;51102;-57
2021/09/16 04:44:03;;;;;;;;;3.00;3.00;;;;;24.01;48.94;101385.47;5019433;28;50898;-57
2021/09/16 04:46:28;;;;;;;;;3.25;3.25;;;;;24.02;48.94;101394.59;5033447;28;51433;-57
2021/09/16 04:48:54;;;;;;;;;3.50;3.50;;;;;24.01;48.79;101392.91;5033949;28;51048;-57
2021/09/16 04:51:19;;;;;;;;;5.75;5.75;;;;;23.99;48.72;101392.31;5017706;28;51282;-57
2021/09/16 04:53:44;;;;;;;;;6.00;5.75;;;;;23.99;48.99;101384.84;5020254;28;51094;-57
2021/09/16 04:56:10;;;;;;;;;5.75;4.00;;;;;23.98;48.84;101383.16;5018147;28;51011;-57
2021/09/16 04:58:35;;;;;;;;;4.50;3.00;;;;;23.98;48.47;101390.63;5032109;28;51194;-58
2021/09/16 05:01:00;;;;;;;;;7.50;6.00;;;;;23.98;48.51;101399.78;5018260;28;51805;-57
2021/09/16 05:03:26;;;;;;;;;4.00;4.00;;;;;23.97;48.73;101398.09;5017207;28;51174;-57
2021/09/16 05:05:51;;;;;;;;;5.50;5.50;;;;;23.96;48.54;101396.38;5018085;28;51104;-57
2021/09/16 05:08:16;;;;;;;;;6.00;5.00;;;;;23.97;48.54;101397.22;5017373;28;51032;-58
2021/09/16 05:10:43;;;;;;;;;5.00;3.25;;;;;23.95;48.39;101394.69;5016345;28;51044;-57
2021/09/16 05:13:08;;;;;;;;;6.75;5.00;;;;;23.96;48.17;101403.81;5017653;28;51325;-57
2021/09/16 05:15:34;;;;;;;;;2.75;2.75;;;;;23.95;48.60;101411.28;5023465;28;50958;-59
2021/09/16 05:18:00;;;;;;;;;6.75;5.75;;;;;23.95;48.66;101404.91;5029164;28;51511;-57
2021/09/16 05:20:25;;;;;;;;;4.50;4.00;;;;;23.95;48.73;101397.44;5042172;28;52063;-58
2021/09/16 05:22:51;;;;;;;;;3.00;3.00;;;;;23.95;48.63;101404.91;5021812;28;51428;-57
2021/09/16 05:25:16;;;;;;;;;5.25;5.25;;;;;23.96;48.30;101412.13;5033423;28;51251;-57
2021/09/16 05:27:42;;;;;;;;;3.75;3.75;;;;;23.94;48.78;101415.13;5026039;28;51149;-57
2021/09/16 05:30:08;;;;;;;;;4.50;4.50;;;;;23.94;48.83;101408.75;5016990;28;51726;-57
2021/09/16 05:32:33;;;;;;;;;4.50;4.25;;;;;23.93;48.45;101416.22;5021210;28;51264;-57
2021/09/16 05:34:58;;;;;;;;;5.25;4.00;;;;;23.92;48.52;101411.75;5029763;28;51159;-58
2021/09/16 05:37:24;;;;;;;;;6.50;3.75;;;;;23.91;48.52;101404.53;5033613;28;51178;-58
2021/09/16 05:39:50;;;;;;;;;6.25;4.25;;;;;23.92;48.57;101416.44;5031758;28;51233;-58
2021/09/16 05:42:15;;;;;;;;;4.25;4.25;;;;;23.90;48.75;101417.53;5030339;28;51148;-57
2021/09/16 05:44:40;;;;;;;;;6.00;4.50;;;;;23.91;48.60;101421.13;5033254;28;51315;-58
2021/09/16 05:47:06;;;;;;;;;3.00;3.00;;;;;23.92;48.86;101417.28;5034018;28;51297;-58
2021/09/16 05:49:31;;;;;;;;;4.50;4.50;;;;;23.91;48.74;101410.06;5030304;28;51787;-58
2021/09/16 05:51:57;;;;;;;;;3.75;3.50;;;;;23.91;48.52;101401.75;5031263;28;51181;-58
2021/09/16 05:54:22;;;;;;;;;3.00;3.00;;;;;23.91;48.88;101412.84;5032456;28;51005;-57
2021/09/16 05:56:47;;;;;;;;;6.00;4.00;;;;;23.93;48.60;101420.91;5033879;28;50992;-58
2021/09/16 05:59:14;;;;;;;;;3.75;3.75;;;;;23.92;49.06;101424.75;5031944;28;51202;-57
2021/09/16 06:01:39;;;;;;;;;5.25;4.25;;;;;23.92;49.02;101428.34;5027033;28;51127;-57
2021/09/16 06:04:05;;;;;;;;;4.25;4.00;;;;;23.92;49.25;101433.03;5021798;28;51170;-59
2021/09/16 06:06:30;;;;;;;;;4.00;3.00;;;;;23.91;48.91;101432.19;5026429;28;51378;-56
2021/09/16 06:08:56;;;;;;;;;4.50;4.50;;;;;23.92;49.24;101433.03;5033863;28;51794;-57
2021/09/16 06:11:21;;;;;;;;;4.25;3.75;;;;;23.92;48.99;101442.19;5032007;28;51126;-58
2021/09/16 06:13:46;;;;;;;;;3.00;3.00;;;;;23.94;49.04;101445.56;5028879;28;51224;-61
2021/09/16 06:16:12;;;;;;;;;6.00;4.50;;;;;23.95;49.21;101441.72;5031181;28;51247;-59
2021/09/16 06:18:37;;;;;;;;;8.00;5.25;;;;;23.96;48.96;101446.16;5034748;28;51069;-59
2021/09/16 06:21:03;;;;;;;;;4.75;4.00;;;;;23.98;49.01;101451.50;5028465;28;51024;-58
2021/09/16 06:23:28;;;;;;;;;2.25;2.00;;;;;23.99;48.92;101453.19;5027494;28;50917;-59
2021/09/16 06:25:53;;;;;;;;;4.50;3.00;;;;;23.99;49.72;101454.03;5026924;28;51263;-59
2021/09/16 06:28:19;;;;;;;;;4.50;3.00;;;;;24.00;49.16;101452.94;5022419;28;51066;-59
2021/09/16 06:30:44;;;;;;;;;3.75;3.75;;;;;24.01;49.32;101454.66;5029634;28;51295;-59
2021/09/16 06:33:13;;;;;;;;;3.00;3.00;;;;;24.02;49.77;101456.31;5028271;28;51154;-59
2021/09/16 06:35:39;;;;;;;;;5.00;2.75;;;;;24.03;49.39;101459.94;5028847;28;51373;-59
2021/09/16 06:38:04;;;;;;;;;3.50;2.00;;;;;24.04;49.23;101469.94;5024048;28;51836;-58
2021/09/16 06:40:29;;;;;;;;;7.00;4.00;;;;;24.04;49.44;101475.47;5028832;28;51078;-58
2021/09/16 06:42:55;;;;;;;;;6.00;5.25;;;;;24.03;49.47;101471.84;5031392;28;51111;-58
2021/09/16 06:45:20;;;;;;;;;6.25;6.00;;;;;24.04;49.23;101475.47;5030022;28;51160;-59
2021/09/16 06:47:45;;;;;;;;;3.50;3.25;;;;;24.05;48.93;101471.63;5031510;28;51267;-57
2021/09/16 06:50:11;;;;;;;;;3.75;2.75;;;;;24.04;48.92;101481.00;5031582;28;51278;-60
2021/09/16 06:52:36;;;;;;;;;5.50;5.00;;;;;24.04;48.96;101481.84;5023321;28;51183;-58
2021/09/16 06:55:02;;;;;;;;;4.00;3.75;;;;;24.03;49.04;101484.84;5031643;28;51022;-59
2021/09/16 06:57:27;;;;;;;;;9.25;5.25;;;;;24.03;48.88;101474.63;5027240;28;51722;-59
2021/09/16 06:59:52;;;;;;;;;5.50;3.00;;;;;24.03;48.56;101473.78;5032253;28;51160;-59
2021/09/16 07:02:18;;;;;;;;;4.50;3.25;;;;;24.02;49.04;101472.94;5029498;28;51643;-59
2021/09/16 07:04:43;;;;;;;;;5.00;4.25;;;;;24.03;48.52;101473.78;5034972;28;51017;-59
2021/09/16 07:07:08;;;;;;;;;7.50;5.00;;;;;24.02;48.59;101475.69;5034712;28;52128;-59
2021/09/16 07:09:35;;;;;;;;;2.00;2.00;;;;;24.02;49.00;101470.16;5033865;28;51257;-58
2021/09/16 07:12:01;;;;;;;;;5.00;4.00;;;;;24.01;48.77;101465.72;5035028;28;51001;-59
2021/09/16 07:14:29;;;;;;;;;4.75;4.00;;;;;24.01;48.53;101471.25;5034966;28;50999;-59
2021/09/16 07:16:55;;;;;;;;;5.50;4.50;;;;;24.01;48.57;101476.78;5036917;28;51343;-59
2021/09/16 07:19:20;;;;;;;;;8.00;3.00;;;;;24.00;48.83;101469.56;5038191;28;51114;-59
2021/09/16 07:21:45;;;;;;;;;5.75;4.00;;;;;24.00;48.70;101475.09;5038332;28;51192;-59
2021/09/16 07:24:12;;;;;;;;;4.25;3.00;;;;;23.99;48.41;101478.09;5038399;28;51078;-59
2021/09/16 07:26:37;;;;;;;;;5.25;4.25;;;;;23.99;48.16;101472.56;5044754;28;51125;-59
2021/09/16 07:29:03;;;;;;;;;4.00;3.00;;;;;23.99;48.29;101473.41;5058413;28;51120;-59
2021/09/16 07:31:29;;;;;;;;;6.00;4.50;;;;;23.99;48.41;101476.16;5057873;28;51372;-59
2021/09/16 07:33:55;;;;;;;;;6.00;4.00;;;;;23.99;48.39;101481.72;5056813;28;51229;-59
2021/09/16 07:36:20;;;;;;;;;4.00;3.50;;;;;23.99;48.64;101478.09;5057818;28;51036;-59
2021/09/16 07:38:46;;;;;;;;;4.25;3.00;;;;;23.98;47.99;101481.94;5058048;28;51142;-59
2021/09/16 07:41:11;;;;;;;;;6.50;4.00;;;;;23.98;48.35;101481.94;5057031;28;51073;-59
2021/09/16 07:43:37;;;;;;;;;6.00;3.00;;;;;23.98;48.16;101488.31;5058463;28;51326;-59
2021/09/16 07:46:03;;;;;;;;;5.00;5.00;;;;;24.00;48.11;101482.56;5057913;28;51012;-59
2021/09/16 07:48:28;;;;;;;;;3.00;2.25;;;;;24.00;48.35;101485.31;5057075;28;51436;-59
2021/09/16 07:50:53;;;;;;;;;3.25;2.50;;;;;24.01;48.16;101492.53;5058098;28;51002;-59
2021/09/16 07:53:19;;;;;;;;;2.75;2.50;;;;;24.00;47.92;101486.16;5058242;28;51312;-59
2021/09/16 07:55:47;;;;;;;;;3.00;3.00;;;;;24.01;47.47;101492.53;5057488;28;51110;-59
2021/09/16 07:58:12;;;;;;;;;4.25;3.00;;;;;24.01;47.55;101504.47;5057599;28;51090;-59
2021/09/16 08:00:38;;;;;;;;;7.25;2.00;;;;;24.03;47.79;101501.44;5057868;28;51048;-59
2021/09/16 08:03:03;;;;;;;;;4.00;3.00;;;;;24.02;48.03;101500.59;5057707;28;51333;-59
2021/09/16 08:05:29;;;;;;;;;3.50;3.00;;;;;24.03;47.98;101499.53;5057245;28;52171;-59
2021/09/16 08:07:54;;;;;;;;;3.75;3.00;;;;;24.03;47.47;101501.44;5057480;28;51221;-59
2021/09/16 08:10:19;;;;;;;;;2.00;2.00;;;;;24.05;47.34;101515.91;5057942;28;51171;-59
2021/09/16 08:12:45;;;;;;;;;2.00;1.75;;;;;24.04;47.39;101511.44;5057731;28;51365;-59
2021/09/16 08:15:10;;;;;;;;;2.50;2.25;;;;;24.04;47.16;101503.97;5057386;28;51649;-59
2021/09/16 08:17:36;;;;;;;;;2.00;2.00;;;;;24.04;47.23;101503.97;5038525;28;51229;-60
2021/09/16 08:20:03;;;;;;;;;3.00;3.00;;;;;24.06;46.99;101503.75;5037229;28;51386;-59
2021/09/16 08:22:28;;;;;;;;;2.75;2.75;;;;;24.07;47.20;101503.56;5037645;28;51106;-60
2021/09/16 08:24:53;;;;;;;;;3.00;3.00;;;;;24.08;47.31;101501.63;5037017;28;52034;-60
2021/09/16 08:27:19;;;;;;;;;4.50;2.50;;;;;24.09;47.20;101506.94;5049127;28;51040;-59
2021/09/16 08:29:44;;;;;;;;;4.50;3.00;;;;;24.09;47.13;101500.53;5057054;28;51026;-60
2021/09/16 08:32:09;;;;;;;;;3.00;3.00;;;;;24.10;46.82;101505.84;5055837;28;51112;-59
2021/09/16 08:34:37;;;;;;;;;2.00;0.50;;;;;24.12;46.72;101500.91;5057163;28;50945;-59
2021/09/16 08:37:03;;;;;;;;;2.00;2.00;;;;;24.14;46.85;101492.38;5056997;28;51127;-59
2021/09/16 08:39:28;;;;;;;;;4.00;2.25;;;;;24.16;47.30;101501.28;5057165;28;51196;-59
2021/09/16 08:41:54;;;;;;;;;2.25;2.25;;;;;24.16;46.49;101496.59;5057565;28;51143;-59
2021/09/16 08:44:19;;;;;;;;;2.50;2.50;;;;;24.17;46.03;101495.53;5056912;28;50936;-59
2021/09/16 08:46:46;;;;;;;;;3.50;2.00;;;;;24.18;45.66;101499.16;5057051;28;50995;-59
2021/09/16 08:49:11;;;;;;;;;1.25;1.25;;;;;24.21;45.94;101500.63;5056790;28;51142;-57
2021/09/16 08:51:39;;;;;;;;;1.50;1.50;;;;;24.22;45.92;101496.75;5057129;28;51293;-58
2021/09/16 08:54:06;;;;;;;;;2.25;2.00;;;;;24.23;45.77;101499.28;5056416;28;51015;-57
2021/09/16 08:56:31;;;;;;;;;2.25;2.00;;;;;24.23;45.72;101502.06;5056512;28;51244;-58
2021/09/16 08:59:02;;;;;;;;;1.50;1.50;;;;;24.25;45.39;101499.06;5056704;28;51000;-59
2021/09/16 09:01:28;;;;;;;;;2.00;2.00;;;;;24.25;45.14;101499.91;5056816;28;51251;-57
2021/09/16 09:03:53;;;;;;;;;1.00;1.00;;;;;24.27;44.65;101507.97;5056079;28;51975;-58
2021/09/16 09:06:28;;;;;;;;;2.00;2.00;;;;;24.29;44.96;101509.47;5056736;28;51121;-58
2021/09/16 09:09:22;;;;;;;;;1.25;1.25;;;;;24.30;45.05;101507.53;5056507;28;51082;-58
2021/09/16 09:11:57;;;;;;;;;1.00;1.00;;;;;24.33;44.91;101515.41;5056881;28;50957;-58
2021/09/16 09:14:32;;;;;;;;;3.00;2.00;;;;;24.34;44.41;101522.63;5056200;28;51007;-58
2021/09/16 09:17:00;;;;;;;;;3.25;2.00;;;;;24.35;44.37;101521.53;5042183;28;51125;-58
2021/09/16 09:19:28;;;;;;;;;1.25;1.25;;;;;24.36;43.99;101526.00;5035962;28;51048;-57
2021/09/16 09:21:55;;;;;;;;;2.75;2.75;;;;;24.38;44.25;101521.06;5036404;28;51026;-57
2021/09/16 09:24:33;;;;;;;;;2.00;1.75;;;;;24.38;44.04;101519.16;5036031;28;51013;-58
2021/09/16 09:27:00;;;;;;;;;2.00;2.00;;;;;24.41;43.74;101520.63;5046037;28;51223;-58
2021/09/16 09:29:26;;;;;;;;;3.00;1.50;;;;;24.42;43.71;101519.53;5056226;28;51119;-58
2021/09/16 09:32:01;;;;;;;;;2.25;2.25;;;;;24.44;43.80;101520.16;5056134;28;50965;-57
2021/09/16 09:34:33;;;;;;;;;2.00;2.00;;;;;24.45;43.62;101519.91;5055838;28;51510;-59
2021/09/16 09:37:09;;;;;;;;;3.75;3.00;;;;;24.46;43.37;101516.06;5055829;28;51100;-57
2021/09/16 09:39:35;;;;;;;;;2.00;1.00;;;;;24.49;43.28;101517.53;5055801;28;50998;-56
2021/09/16 09:42:34;;;;;;;;;9.00;4.00;;;;;24.50;43.53;101527.53;5056201;28;51426;-58
2021/09/16 09:45:07;;;;;;;;;3.75;3.75;;;;;24.51;43.35;101517.31;5043359;28;51396;-58
2021/09/16 09:47:45;;;;;;;;;2.25;2.25;;;;;24.51;43.61;101520.91;5055907;28;51091;-58
2021/09/16 09:50:23;;;;;;;;;3.00;3.00;;;;;24.52;43.62;101516.22;5056254;28;51077;-58
2021/09/16 09:52:50;;;;;;;;;3.00;3.00;;;;;24.53;43.36;101516.00;5056348;28;51183;-59
2021/09/16 09:55:19;;;;;;;;;2.50;1.75;;;;;24.55;43.21;101524.06;5055608;28;51978;-59
2021/09/16 09:57:45;;;;;;;;;5.75;2.25;;;;;24.56;43.24;101520.22;5055648;28;51073;-58
2021/09/16 10:00:16;;;;;;;;;2.00;2.00;;;;;24.57;43.23;101525.50;5055642;28;51000;-59
2021/09/16 10:02:54;;;;;;;;;3.00;3.00;;;;;24.58;43.18;101527.19;5055615;28;51288;-59
2021/09/16 10:05:27;;;;;;;;;3.00;3.00;;;;;24.57;42.86;101517.19;5054171;28;52899;-58
2021/09/16 10:07:54;;;;;;;;;2.75;2.75;;;;;24.59;42.63;101523.34;5055540;28;51132;-58
2021/09/16 10:10:22;;;;;;;;;4.75;3.00;;;;;24.60;42.89;101524.22;5055924;28;51153;-57
2021/09/16 10:12:52;;;;;;;;;3.00;3.00;;;;;24.61;42.64;101520.38;5055815;28;51199;-58
2021/09/16 10:15:19;;;;;;;;;2.50;2.50;;;;;24.62;42.51;101506.28;5055250;28;52999;-58
2021/09/16 10:17:46;;;;;;;;;4.00;4.00;;;;;24.63;42.86;101512.66;5038805;28;51091;-58
2021/09/16 10:20:14;;;;;;;;;3.75;3.75;;;;;24.62;42.81;101513.75;5035534;28;51176;-58
2021/09/16 10:22:41;;;;;;;;;3.25;3.00;;;;;24.64;42.34;101508.81;5035835;28;51144;-60
2021/09/16 10:25:08;;;;;;;;;3.00;3.00;;;;;24.64;42.45;101504.13;5034881;28;52913;-58
2021/09/16 10:27:40;;;;;;;;;6.75;5.50;;;;;24.64;42.33;101509.66;5049788;28;51100;-57
2021/09/16 10:30:24;;;;;;;;;7.75;6.75;;;;;24.66;42.38;101498.34;5055490;28;51133;-58
2021/09/16 10:33:27;;;;;;;;;4.25;4.25;;;;;24.66;42.43;101503.88;5055011;28;51015;-58
2021/09/16 10:35:58;;;;;;;;;3.75;3.75;;;;;24.66;42.31;101501.09;5054957;28;51142;-58
2021/09/16 10:38:49;;;;;;;;;5.50;5.50;;;;;24.66;42.01;101499.19;5055198;28;51061;-58
2021/09/16 10:41:16;;;;;;;;;6.25;4.25;;;;;24.66;42.16;101490.88;5055264;28;51104;-58
2021/09/16 10:43:44;;;;;;;;;4.00;4.00;;;;;24.67;42.31;101500.88;5055178;28;51260;-58
2021/09/16 10:46:24;;;;;;;;;3.75;3.75;;;;;24.68;42.07;101493.41;5054805;28;50966;-58
2021/09/16 10:48:50;;;;;;;;;4.00;4.00;;;;;24.69;41.91;101490.38;5054542;28;51427;-58
2021/09/16 10:51:35;;;;;;;;;6.75;4.00;;;;;24.69;42.07;101486.78;5057167;28;51204;-58
2021/09/16 10:54:00;;;;;;;;;4.00;4.00;;;;;24.70;41.79;101488.50;5058680;28;51384;-58
2021/09/16 10:56:29;;;;;;;;;5.00;5.00;;;;;24.70;42.32;101489.34;5058502;28;51095;-58
2021/09/16 10:58:56;;;;;;;;;6.00;3.25;;;;;24.70;42.11;101485.72;5057967;28;50957;-57
2021/09/16 11:01:49;;;;;;;;;5.00;4.00;;;;;24.71;42.18;101487.41;5056679;28;51149;-58
2021/09/16 11:04:15;;;;;;;;;4.50;4.00;;;;;24.71;42.16;101482.72;5058248;28;50916;-59
2021/09/16 11:06:41;;;;;;;;;3.00;3.00;;;;;24.72;42.07;101478.84;5057720;28;51982;-58
2021/09/16 11:09:07;;;;;;;;;3.00;3.00;;;;;24.74;42.08;101489.69;5057457;28;51105;-58
2021/09/16 11:11:51;;;;;;;;;4.25;3.75;;;;;24.73;41.90;101488.84;5056899;28;51144;-58
2021/09/16 11:14:34;;;;;;;;;3.25;3.00;;;;;24.74;41.84;101486.94;5058567;28;51322;-59
2021/09/16 11:17:01;;;;;;;;;4.00;3.75;;;;;24.73;41.87;101483.31;5048184;28;51881;-58
2021/09/16 11:19:27;;;;;;;;;4.00;3.75;;;;;24.75;41.96;101491.38;5037771;28;51450;-58
2021/09/16 11:22:04;;;;;;;;;6.00;4.50;;;;;24.74;41.89;101490.53;5037584;28;51094;-58
2021/09/16 11:24:35;;;;;;;;;4.00;4.00;;;;;24.74;41.92;101487.78;5038129;28;51150;-57